• Join FlightAware (Why Join?)
  • Login
  • US Flag 
10:01AM EDT


 

Airport Tracker/Info


-or-


 

Live Flight TrackerFlight Track Log ✈ UAL3773 ✈ 17-Apr-2013 ✈ KCLT - KIAD

Flight Track Log - Related Links

Times and Time Zones

All times are in EDT time to prevent confusion due to time zone crossing. See the UAL3773 flight status page for this flight to view local times or setup timezone preferences in your user account.

Time Position Orientation Groundspeed Altitude Reporting Facility
EDT Latitude Longitude Course Direction KTS MPH feet Rate Location/Type
10:22AM 35.1969 -80.9331 72° East 162 186 1,400  Level FAA TRACON SMA TRACON (SMA)
10:22AM 35.1797 -80.9314 175° South 161 185 2,300 2,220 Climbing FAA TRACON SMA TRACON (SMA)
10:22AM 35.1639 -80.9300 176° South 188 216 2,900 1,620 Climbing FAA TRACON SMA TRACON (SMA)
10:23AM 35.1475 -80.9228 160° South 218 251 3,400 1,800 Climbing FAA TRACON SMA TRACON (SMA)
10:23AM 35.1286 -80.9028 139° Southeast 244 281 4,100 2,100 Climbing FAA TRACON SMA TRACON (SMA)
10:23AM 35.1128 -80.8847 137° Southeast 259 298 4,800 2,340 Climbing FAA TRACON SMA TRACON (SMA)
10:24AM 35.0953 -80.8575 128° Southeast 284 327 5,700 2,580 Climbing FAA TRACON SMA TRACON (SMA)
10:24AM 35.0903 -80.8303 103° East 275 316 6,600 2,880 Climbing FAA TRACON SMA TRACON (SMA)
10:24AM 35.0931 -80.8025 83° East 275 316 7,600 2,760 Climbing FAA TRACON SMA TRACON (SMA)
10:25AM 35.1044 -80.7769 61° Northeast 290 334 8,400 2,820 Climbing FAA TRACON SMA TRACON (SMA)
10:25AM 35.1206 -80.7458 58° Northeast 283 326 9,500 2,820 Climbing FAA TRACON SMA TRACON (SMA)
10:25AM 35.1336 -80.7206 58° Northeast 287 330 10,300 2,400 Climbing FAA TRACON SMA TRACON (SMA)
10:26AM 35.3167 -80.4729 90° East  Level FlightAware Approximate
10:26AM 35.1506 -80.6886 57° Northeast 292 336 11,100  Level FAA TRACON SMA TRACON (SMA)
10:26AM 35.1656 -80.6600 57° Northeast 325 374 11,300 1,020 Climbing FAA TRACON SMA TRACON (SMA)
10:26AM 35.1794 -80.6319 59° Northeast 345 397 11,800 2,100 Climbing FAA TRACON SMA TRACON (SMA)
10:27AM 35.3620 -80.3581 72° East  Level FlightAware Approximate
10:27AM 35.2014 -80.5925 56° Northeast 344 396 12,700  Level FAA TRACON SMA TRACON (SMA)
10:27AM 35.2181 -80.5614 57° Northeast 357 411 13,200 1,620 Climbing FAA TRACON SMA TRACON (SMA)
10:27AM 35.2350 -80.5300 57° Northeast 364 419 13,800 1,620 Climbing FAA TRACON SMA TRACON (SMA)
10:28AM 35.2481 -80.5056 57° Northeast 372 428 14,300 720 Climbing FAA TRACON SMA TRACON (SMA)
10:28AM 35.2481 -80.5056 141° Southeast 372 428 14,300 1,920 Level FAA TRACON SMA TRACON (SMA)
10:30AM 35.3786 -80.2564 57° Northeast 380 437 18,400 2,100 Climbing Washington Center
10:31AM 35.4333 -80.1347 61° Northeast 397 457 20,200 1,680 Climbing Washington Center
10:32AM 35.4650 -80.0142 72° East 402 463 21,800 1,680 Climbing Washington Center
10:33AM 35.5011 -79.8808 72° East 407 468 23,600 1,740 Climbing Washington Center
10:34AM 35.5350 -79.7475 73° East 407 468 25,300 1,560 Climbing Washington Center
10:35AM 35.5692 -79.6089 73° East 413 475 26,800 840 Climbing Washington Center
10:36AM 35.6158 -79.4553 69° East 430 495 27,000 60 Climbing Washington Center
10:37AM 35.7061 -79.3753 36° Northeast 422 486 27,000  Level Washington Center
10:38AM 35.8153 -79.2856 34° Northeast 438 504 27,000  Level Washington Center
10:39AM 35.9225 -79.1958 34° Northeast 452 520 27,000  Level Washington Center
10:40AM 36.0294 -79.1081 34° Northeast 462 532 27,000  Level Washington Center
10:41AM 36.1383 -79.0178 34° Northeast 462 532 27,000  Level Washington Center
10:42AM 36.2431 -78.9297 34° Northeast 462 532 27,000  Level Washington Center
10:43AM 36.3542 -78.8389 33° Northeast 462 532 27,000  Level Washington Center
10:44AM 36.4586 -78.7503 34° Northeast 462 532 27,000  Level Washington Center
10:45AM 36.5611 -78.6639 34° Northeast 452 520 27,000 -180 Level Washington Center
10:46AM 36.6592 -78.5797 35° Northeast 442 509 26,700 -540 Descending Washington Center
10:47AM 36.7575 -78.4903 36° Northeast 432 497 26,000 -360 Descending Washington Center
10:48AM 36.8572 -78.4108 33° Northeast 427 491 26,000  Level Washington Center
10:49AM 36.9617 -78.3161 36° Northeast 427 491 26,000 -60 Level Washington Center
10:50AM 37.0594 -78.2361 33° Northeast 427 491 25,900 -600 Descending Washington Center
10:51AM 37.1550 -78.1561 34° Northeast 427 491 24,900 -1,020 Descending Washington Center
10:52AM 37.2358 -78.0858 35° Northeast 408 470 23,900 -1,020 Descending Washington Center
10:53AM 37.3231 -78.0075 36° Northeast 397 457 22,900 -960 Descending Washington Center
10:54AM 37.4100 -77.9292 36° Northeast 390 449 22,000 -660 Descending Washington Center
10:55AM 37.4969 -77.8561 34° Northeast 390 449 21,600 -1,140 Descending Washington Center
10:56AM 37.5900 -77.7933 28° Northeast 379 436 19,800 -1,800 Descending Washington Center
10:57AM 37.6786 -77.7408 25° Northeast 364 419 18,000 -1,620 Descending Washington Center
10:58AM 37.7628 -77.6906 25° Northeast 341 392 16,600 -1,500 Descending Washington Center
10:59AM 37.8492 -77.6403 25° Northeast 341 392 15,000 -1,620 Descending Washington Center
11:00AM 37.9356 -77.5900 25° Northeast 341 392 13,400 -1,560 Descending Washington Center
11:01AM 38.0281 -77.5372 24° Northeast 336 387 11,900 -1,260 Descending Washington Center
11:02AM 38.0997 -77.4917 27° Northeast 325 374 10,900 -900 Descending Washington Center
11:03AM 38.1797 -77.4433 25° Northeast 298 343 10,100 -540 Descending Washington Center
11:04AM 38.2467 -77.4425 North 269 310 9,900 -1,020 Descending Washington Center
11:05AM 38.3211 -77.4681 345° North 269 310 8,100 -1,500 Descending Washington Center
11:06AM 38.3964 -77.4672 360° North 269 310 6,900 -1,380 Descending Washington Center
11:07AM 38.4692 -77.4692 359° North 269 310 5,400 -960 Descending Washington Center
11:08AM 38.5422 -77.4658 North 264 304 5,000 -240 Descending Washington Center
11:09AM 38.6111 -77.4647 North 258 297 5,000  Level Washington Center
11:09AM 38.6667 -77.4667 358° North 227 261 5,100 -120 Climbing Potomac TRACON
11:10AM 38.7333 -77.4667 360° North 224 258 4,800 -960 Descending Potomac TRACON
11:11AM 38.7833 -77.4667 360° North 205 236 3,200 -1,200 Descending Potomac TRACON
11:12AM 38.8333 -77.4667 360° North 173 199 2,400 -840 Descending Potomac TRACON